createdAt,value
2022-08-18T00:02:09.627Z,29.40
2022-08-18T00:04:43.424Z,27.88
2022-08-18T00:07:25.418Z,31.10
2022-08-18T00:09:52.962Z,29.48
2022-08-18T00:12:25.502Z,33.78
2022-08-18T00:14:53.786Z,27.45
2022-08-18T00:17:22.061Z,29.13
2022-08-18T00:19:49.636Z,29.58
2022-08-18T00:22:18.924Z,32.03
2022-08-18T00:24:49.929Z,28.05
2022-08-18T00:27:28.723Z,28.10
2022-08-18T00:29:58.762Z,27.30
2022-08-18T00:32:33.804Z,25.35
2022-08-18T00:35:13.779Z,27.58
2022-08-18T00:37:42.197Z,28.67
2022-08-18T00:40:12.726Z,30.02
2022-08-18T00:42:49.747Z,28.77
2022-08-18T00:45:24.044Z,28.95
2022-08-18T00:47:51.791Z,25.70
2022-08-18T00:50:24.624Z,24.25
2022-08-18T00:53:02.370Z,23.98
2022-08-18T00:55:32.433Z,25.02
2022-08-18T00:58:07.123Z,24.50
2022-08-18T01:00:34.935Z,31.13
2022-08-18T01:03:07.300Z,25.02
2022-08-18T01:05:40.951Z,24.45
2022-08-18T01:08:12.058Z,27.75
2022-08-18T01:10:40.616Z,26.17
2022-08-18T01:13:08.582Z,28.55
2022-08-18T01:15:36.535Z,30.75
2022-08-18T01:18:28.774Z,33.53
2022-08-18T01:21:14.334Z,28.92
2022-08-18T01:23:42.048Z,26.00
2022-08-18T01:26:10.173Z,27.63
2022-08-18T01:28:41.049Z,23.38
2022-08-18T01:31:10.093Z,25.23
2022-08-18T01:33:43.251Z,28.20
2022-08-18T01:36:17.052Z,26.65
2022-08-18T01:38:53.343Z,24.67
2022-08-18T01:41:29.812Z,23.95
2022-08-18T01:44:02.629Z,24.58
2022-08-18T01:46:31.977Z,24.00
2022-08-18T01:49:01.451Z,25.70
2022-08-18T01:51:38.156Z,29.30
2022-08-18T01:54:14.643Z,31.60
2022-08-18T01:56:42.727Z,27.17
2022-08-18T01:59:14.104Z,25.98
2022-08-18T02:01:48.385Z,26.20
2022-08-18T02:04:34.283Z,33.88
2022-08-18T02:07:05.669Z,28.88
2022-08-18T02:09:35.150Z,28.67
2022-08-18T02:12:02.229Z,31.92
2022-08-18T02:14:31.322Z,27.77
2022-08-18T02:17:02.326Z,31.52
2022-08-18T02:19:38.730Z,25.67
2022-08-18T02:22:08.500Z,24.75
2022-08-18T02:24:36.347Z,25.23
2022-08-18T02:27:03.413Z,26.58
2022-08-18T02:29:31.250Z,26.27
2022-08-18T02:31:58.210Z,29.38
2022-08-18T02:34:25.828Z,27.90
2022-08-18T02:36:53.347Z,37.35
2022-08-18T02:39:20.578Z,30.13
2022-08-18T02:41:47.800Z,32.70
2022-08-18T02:44:14.952Z,29.25
2022-08-18T02:46:41.975Z,29.55
2022-08-18T02:49:09.081Z,29.67
2022-08-18T02:51:36.542Z,29.92
2022-08-18T02:54:09.277Z,28.45
2022-08-18T02:56:41.347Z,28.35
2022-08-18T02:59:12.836Z,28.48
2022-08-18T03:01:45.016Z,28.35
2022-08-18T03:04:15.602Z,26.85
2022-08-18T03:06:44.295Z,29.55
2022-08-18T03:09:15.397Z,30.05
2022-08-18T03:11:43.812Z,29.60
2022-08-18T03:14:11.672Z,27.08
2022-08-18T03:16:52.706Z,46.97
2022-08-18T03:19:24.239Z,26.05
2022-08-18T03:21:51.548Z,32.42
2022-08-18T03:24:22.742Z,30.25
2022-08-18T03:26:52.492Z,29.80
2022-08-18T03:29:20.610Z,28.00
2022-08-18T03:31:48.848Z,27.92
2022-08-18T03:34:19.862Z,29.98
2022-08-18T03:36:50.011Z,36.95
2022-08-18T03:39:19.246Z,42.25
2022-08-18T03:41:58.141Z,39.40
2022-08-18T03:44:37.053Z,33.53
2022-08-18T03:47:08.199Z,45.65
2022-08-18T03:49:35.698Z,43.03
2022-08-18T03:52:03.779Z,35.63
2022-08-18T03:54:34.075Z,41.70
2022-08-18T03:59:45.536Z,45.42
2022-08-18T04:02:12.910Z,44.45
2022-08-18T04:04:43.190Z,44.03
2022-08-18T04:07:11.992Z,47.05
2022-08-18T04:09:39.448Z,52.55
2022-08-18T04:12:13.398Z,53.67
2022-08-18T04:14:46.589Z,59.90
2022-08-18T04:17:14.098Z,73.50
2022-08-18T04:19:41.100Z,59.03
2022-08-18T04:22:08.642Z,64.22
2022-08-18T04:24:35.849Z,64.30
2022-08-18T04:27:05.023Z,72.43
2022-08-18T04:29:32.317Z,50.83
2022-08-18T04:32:04.027Z,53.00
2022-08-18T04:34:33.015Z,57.15
2022-08-18T04:37:00.712Z,56.72
2022-08-18T04:39:28.371Z,59.17
2022-08-18T04:41:55.462Z,65.75
2022-08-18T04:44:22.606Z,58.97
2022-08-18T04:46:53.321Z,53.88
2022-08-18T04:49:25.736Z,55.10
2022-08-18T04:52:26.722Z,47.65
2022-08-18T04:55:01.870Z,49.45
2022-08-18T04:57:33.022Z,54.17
2022-08-18T05:00:01.187Z,48.28
2022-08-18T05:02:28.330Z,46.55
2022-08-18T05:04:55.507Z,54.22
2022-08-18T05:07:23.109Z,53.30
2022-08-18T05:09:50.674Z,48.22
2022-08-18T05:12:17.865Z,45.42
2022-08-18T05:14:47.967Z,44.22
2022-08-18T05:17:16.152Z,44.60
2022-08-18T05:19:44.656Z,41.92
2022-08-18T05:22:17.842Z,40.70
2022-08-18T05:24:46.337Z,44.08
2022-08-18T05:27:13.579Z,44.35
2022-08-18T05:29:41.666Z,39.30
2022-08-18T05:32:36.985Z,42.25
2022-08-18T05:35:09.454Z,38.95
2022-08-18T05:38:01.570Z,42.55
2022-08-18T05:40:31.880Z,36.20
2022-08-18T05:43:00.342Z,39.92
2022-08-18T05:45:27.585Z,38.00
2022-08-18T05:48:02.019Z,37.60
2022-08-18T05:50:32.456Z,37.55
2022-08-18T05:53:20.727Z,47.83
2022-08-18T05:56:33.182Z,46.08
2022-08-18T05:59:01.382Z,47.70
2022-08-18T06:01:38.764Z,43.38
2022-08-18T06:04:21.051Z,47.85
2022-08-18T06:06:49.629Z,51.60
2022-08-18T06:09:16.505Z,43.17
2022-08-18T06:11:43.499Z,50.08
2022-08-18T06:14:11.087Z,49.92
2022-08-18T06:16:45.216Z,55.30
2022-08-18T06:19:42.228Z,43.42
2022-08-18T06:22:27.156Z,48.08
2022-08-18T06:25:17.889Z,46.70
2022-08-18T06:28:06.209Z,45.10
2022-08-18T06:30:33.362Z,44.90
2022-08-18T06:33:37.677Z,51.67
2022-08-18T06:36:19.746Z,43.58
2022-08-18T06:39:04.988Z,47.22
2022-08-18T06:41:43.875Z,38.90
2022-08-18T06:44:35.941Z,39.97
2022-08-18T06:47:33.998Z,42.55
2022-08-18T06:50:07.352Z,35.40
2022-08-18T06:52:37.415Z,43.65
2022-08-18T06:55:13.980Z,34.60
2022-08-18T06:57:59.147Z,33.22
2022-08-18T07:00:32.444Z,30.98
2022-08-18T07:03:16.215Z,35.80
2022-08-18T07:06:04.849Z,37.97
2022-08-18T07:08:31.989Z,29.55
2022-08-18T07:11:14.197Z,32.60
2022-08-18T07:13:44.445Z,27.13
2022-08-18T07:16:57.245Z,27.58
2022-08-18T07:19:29.514Z,24.90
2022-08-18T07:22:12.714Z,28.67
2022-08-18T07:24:44.705Z,25.40
2022-08-18T07:27:19.133Z,24.83
2022-08-18T07:30:06.010Z,23.27
2022-08-18T07:32:39.826Z,21.55
2022-08-18T07:35:09.899Z,27.58
2022-08-18T07:37:43.700Z,23.95
2022-08-18T07:40:22.109Z,21.77
2022-08-18T07:43:02.091Z,22.08
2022-08-18T07:45:45.383Z,23.98
2022-08-18T07:51:27.106Z,23.63
2022-08-18T07:54:20.266Z,24.77
2022-08-18T07:57:21.483Z,23.00
2022-08-18T08:00:02.079Z,24.35
2022-08-18T08:02:39.063Z,21.52
2022-08-18T08:05:24.892Z,19.23
2022-08-18T08:08:01.555Z,19.95
2022-08-18T08:10:57.171Z,18.02
2022-08-18T08:13:55.617Z,22.40
2022-08-18T08:16:35.281Z,22.40
2022-08-18T08:19:11.269Z,21.15
2022-08-18T08:21:56.553Z,19.48
2022-08-18T08:24:34.742Z,18.27
2022-08-18T08:27:23.882Z,21.05
2022-08-18T08:30:18.916Z,19.05
2022-08-18T08:32:45.842Z,16.83
2022-08-18T08:35:49.644Z,19.65
2022-08-18T08:38:42.807Z,16.65
2022-08-18T08:41:38.743Z,19.00
2022-08-18T08:44:15.637Z,20.55
2022-08-18T08:46:52.828Z,20.95
2022-08-18T08:49:27.597Z,17.23
2022-08-18T08:52:20.171Z,20.52
2022-08-18T08:55:09.423Z,14.05
2022-08-18T08:57:42.870Z,21.15
2022-08-18T09:03:19.512Z,20.85
2022-08-18T09:05:59.989Z,19.77
2022-08-18T09:08:35.455Z,17.55
2022-08-18T09:11:39.915Z,21.00
2022-08-18T09:14:39.062Z,18.85
2022-08-18T09:17:36.795Z,18.02
2022-08-18T09:20:35.420Z,19.17
2022-08-18T09:23:05.174Z,17.63
2022-08-18T09:25:38.342Z,14.05
2022-08-18T09:28:15.387Z,16.92
2022-08-18T09:31:01.690Z,17.77
2022-08-18T09:33:44.115Z,15.80
2022-08-18T09:36:40.196Z,19.05
2022-08-18T09:39:53.833Z,15.07
2022-08-18T09:42:59.963Z,22.20
2022-08-18T09:45:33.635Z,14.10
2022-08-18T09:51:17.689Z,17.90
2022-08-18T09:53:54.152Z,16.40
2022-08-18T09:56:54.550Z,18.23
2022-08-18T09:59:38.281Z,14.20
2022-08-18T10:02:37.630Z,14.40
2022-08-18T10:05:15.655Z,14.82
2022-08-18T10:08:05.577Z,19.75
2022-08-18T10:11:01.579Z,17.55
2022-08-18T10:14:00.507Z,14.30
2022-08-18T10:16:42.016Z,17.83
2022-08-18T10:19:52.034Z,16.15
2022-08-18T10:22:39.120Z,12.52
2022-08-18T10:25:23.070Z,17.90
2022-08-18T10:27:56.612Z,16.85
2022-08-18T10:30:31.131Z,16.02
2022-08-18T10:33:17.645Z,14.80
2022-08-18T10:35:59.884Z,15.55
2022-08-18T10:38:45.936Z,18.10
2022-08-18T10:41:32.045Z,15.25
2022-08-18T10:44:01.429Z,12.05
2022-08-18T10:46:46.725Z,21.17
2022-08-18T10:49:13.990Z,14.88
2022-08-18T10:52:14.068Z,16.33
2022-08-18T10:55:19.482Z,21.65
2022-08-18T10:58:00.560Z,16.50
2022-08-18T11:00:40.032Z,17.33
2022-08-18T11:03:55.536Z,12.30
2022-08-18T11:06:24.744Z,16.98
2022-08-18T11:08:58.782Z,19.17
2022-08-18T11:11:41.450Z,15.77
2022-08-18T11:14:36.763Z,15.27
2022-08-18T11:17:20.932Z,16.55
2022-08-18T11:19:50.809Z,13.32
2022-08-18T11:22:34.087Z,18.13
2022-08-18T11:25:04.716Z,23.35
2022-08-18T11:30:37.586Z,18.00
2022-08-18T11:33:07.962Z,21.05
2022-08-18T11:35:49.671Z,12.63
2022-08-18T11:38:20.720Z,18.15
2022-08-18T11:41:11.579Z,13.85
2022-08-18T11:43:43.051Z,13.32
2022-08-18T11:46:27.815Z,21.30
2022-08-18T11:48:58.262Z,15.35
2022-08-18T11:51:30.459Z,16.33
2022-08-18T11:54:19.065Z,16.70
2022-08-18T11:56:46.343Z,16.30
2022-08-18T11:59:52.306Z,12.82
2022-08-18T12:02:17.986Z,18.75
2022-08-18T12:04:52.536Z,16.38
2022-08-18T12:07:33.826Z,15.52
2022-08-18T12:10:28.390Z,16.52
2022-08-18T12:13:00.805Z,15.80
2022-08-18T12:18:28.578Z,14.65
2022-08-18T12:20:59.499Z,20.30
2022-08-18T12:23:38.991Z,13.35
2022-08-18T12:26:26.867Z,19.02
2022-08-18T12:29:04.105Z,16.08
2022-08-18T12:31:42.638Z,14.93
2022-08-18T12:34:17.913Z,16.55
2022-08-18T12:36:54.397Z,15.23
2022-08-18T12:39:21.832Z,16.50
2022-08-18T12:41:49.144Z,14.98
2022-08-18T12:44:16.145Z,19.33
2022-08-18T12:46:45.596Z,17.25
2022-08-18T12:49:18.978Z,17.45
2022-08-18T12:51:50.433Z,13.10
2022-08-18T12:54:21.066Z,14.55
2022-08-18T12:56:51.701Z,15.23
2022-08-18T12:59:19.054Z,12.23
2022-08-18T13:01:46.449Z,14.95
2022-08-18T13:04:15.507Z,12.68
2022-08-18T13:07:00.284Z,16.52
2022-08-18T13:09:52.613Z,16.30
2022-08-18T13:12:22.587Z,12.10
2022-08-18T13:14:54.844Z,14.20
2022-08-18T13:17:32.210Z,21.08
2022-08-18T13:20:05.620Z,13.20
2022-08-18T13:22:33.379Z,13.15
2022-08-18T13:25:07.401Z,17.30
2022-08-18T13:27:37.351Z,10.52
2022-08-18T13:30:16.752Z,14.00
2022-08-18T13:33:02.518Z,18.20
2022-08-18T13:35:38.311Z,17.98
2022-08-18T13:38:22.022Z,15.30
2022-08-18T13:40:55.572Z,15.52
2022-08-18T13:43:32.428Z,13.88
2022-08-18T13:46:02.778Z,16.83
2022-08-18T13:48:32.435Z,13.88
2022-08-18T13:51:01.884Z,12.70
2022-08-18T13:53:31.655Z,15.55
2022-08-18T13:55:59.324Z,18.33
2022-08-18T13:58:28.240Z,13.68
2022-08-18T14:01:22.752Z,16.83
2022-08-18T14:03:50.271Z,14.52
2022-08-18T14:06:22.186Z,15.70
2022-08-18T14:08:53.044Z,16.02
2022-08-18T14:11:33.075Z,15.05
2022-08-18T14:14:02.299Z,16.00
2022-08-18T14:16:29.435Z,18.48
2022-08-18T14:19:17.648Z,16.65
2022-08-18T14:22:07.404Z,18.70
2022-08-18T14:24:58.595Z,17.65
2022-08-18T14:27:35.333Z,14.18
2022-08-18T14:30:09.571Z,18.85
2022-08-18T14:32:49.144Z,11.55
2022-08-18T14:36:04.197Z,15.93
2022-08-18T14:38:07.177Z,14.75
2022-08-18T14:40:43.176Z,17.23
2022-08-18T14:43:12.330Z,13.82
2022-08-18T14:45:48.942Z,14.05
2022-08-18T14:48:20.298Z,13.55
2022-08-18T14:50:50.266Z,13.13
2022-08-18T14:53:20.297Z,14.63
2022-08-18T14:55:52.752Z,13.10
2022-08-18T14:58:31.826Z,15.48
2022-08-18T15:01:08.495Z,13.68
2022-08-18T15:03:38.268Z,15.07
2022-08-18T15:06:07.505Z,13.32
2022-08-18T15:08:37.404Z,15.60
2022-08-18T15:11:11.829Z,13.38
2022-08-18T15:13:42.298Z,11.45
2022-08-18T15:16:13.536Z,11.52
2022-08-18T15:18:44.452Z,14.18
2022-08-18T15:21:38.547Z,22.77
2022-08-18T15:24:26.511Z,15.82
2022-08-18T15:26:57.513Z,12.43
2022-08-18T15:29:28.053Z,14.60
2022-08-18T15:32:05.656Z,16.75
2022-08-18T15:34:46.100Z,15.10
2022-08-18T15:37:14.168Z,13.93
2022-08-18T15:39:41.435Z,17.45
2022-08-18T15:42:12.967Z,16.98
2022-08-18T15:44:40.842Z,14.10
2022-08-18T15:47:11.765Z,13.75
2022-08-18T15:49:38.874Z,14.45
2022-08-18T15:52:06.931Z,10.52
2022-08-18T15:54:42.265Z,14.02
2022-08-18T15:57:23.667Z,15.82
2022-08-18T16:00:00.683Z,15.30
2022-08-18T16:02:27.885Z,16.95
2022-08-18T16:04:54.978Z,15.15
2022-08-18T16:07:39.946Z,18.38
2022-08-18T16:10:09.254Z,12.48
2022-08-18T16:12:36.270Z,18.52
2022-08-18T16:15:08.590Z,12.95
2022-08-18T16:17:35.853Z,10.45
2022-08-18T16:20:02.942Z,11.10
2022-08-18T16:22:30.001Z,14.85
2022-08-18T16:24:57.108Z,11.40
2022-08-18T16:27:24.057Z,20.50
2022-08-18T16:29:51.039Z,16.80
2022-08-18T16:32:18.191Z,18.52
2022-08-18T16:34:45.127Z,13.52
2022-08-18T16:37:12.097Z,20.02
2022-08-18T16:39:39.386Z,17.27
2022-08-18T16:42:06.971Z,16.50
2022-08-18T16:44:34.015Z,14.13
2022-08-18T16:47:01.807Z,14.50
2022-08-18T16:49:29.058Z,20.23
2022-08-18T16:51:56.162Z,14.88
2022-08-18T16:54:23.382Z,16.60
2022-08-18T16:56:50.361Z,12.40
2022-08-18T16:59:36.034Z,19.70
2022-08-18T17:02:21.997Z,12.95
2022-08-18T17:04:49.095Z,21.17
2022-08-18T17:07:16.218Z,12.68
2022-08-18T17:09:43.231Z,11.35
2022-08-18T17:12:11.607Z,13.90
2022-08-18T17:14:39.620Z,22.95
2022-08-18T17:17:07.683Z,16.98
2022-08-18T17:19:35.388Z,12.63
2022-08-18T17:22:03.746Z,12.88
2022-08-18T17:24:32.523Z,15.55
2022-08-18T17:27:26.095Z,11.60
2022-08-18T17:30:01.592Z,15.98
2022-08-18T17:35:13.644Z,26.90
2022-08-18T17:37:49.491Z,14.60
2022-08-18T17:40:24.439Z,24.67
2022-08-18T17:42:57.294Z,16.27
2022-08-18T17:45:24.535Z,12.07
2022-08-18T17:48:07.221Z,16.15
2022-08-18T17:51:12.000Z,16.83
2022-08-18T17:53:39.178Z,16.13
2022-08-18T17:56:20.468Z,15.43
2022-08-18T17:59:04.988Z,18.45
2022-08-18T18:01:35.828Z,24.92
2022-08-18T18:04:04.173Z,27.95
2022-08-18T18:06:34.177Z,18.88
2022-08-18T18:09:12.239Z,24.67
2022-08-18T18:11:43.251Z,22.45
2022-08-18T18:14:27.970Z,26.17
2022-08-18T18:17:02.657Z,32.75
2022-08-18T18:19:33.009Z,24.25
2022-08-18T18:22:10.464Z,31.40
2022-08-18T18:24:39.191Z,33.40
2022-08-18T18:27:28.217Z,44.22
2022-08-18T18:30:06.054Z,49.47
2022-08-18T18:32:38.238Z,47.20
2022-08-18T18:35:11.438Z,44.80
2022-08-18T18:37:59.595Z,48.80
2022-08-18T18:40:31.906Z,122.53
2022-08-18T18:43:25.491Z,309.30
2022-08-18T18:46:14.324Z,413.25
2022-08-18T18:48:52.480Z,287.65
2022-08-18T18:51:33.545Z,116.82
2022-08-18T18:54:15.813Z,33.67
2022-08-18T18:56:56.313Z,33.95
2022-08-18T18:59:38.595Z,41.65
2022-08-18T19:02:33.172Z,30.35
2022-08-18T19:05:23.714Z,28.15
2022-08-18T19:07:56.991Z,35.50
2022-08-18T19:10:43.559Z,49.30
2022-08-18T19:13:32.290Z,60.10
2022-08-18T19:16:11.823Z,57.45
2022-08-18T19:18:57.962Z,40.22
2022-08-18T19:22:05.865Z,54.95
2022-08-18T19:24:39.817Z,54.58
2022-08-18T19:27:15.562Z,63.40
2022-08-18T19:29:45.014Z,63.90
2022-08-18T19:32:16.927Z,64.82
2022-08-18T19:34:52.659Z,60.05
2022-08-18T19:37:32.599Z,59.60
2022-08-18T19:39:59.902Z,53.70
2022-08-18T19:42:37.722Z,59.47
2022-08-18T19:45:16.944Z,65.30
2022-08-18T19:47:53.569Z,60.45
2022-08-18T19:50:45.741Z,41.20
2022-08-18T19:53:21.958Z,42.92
2022-08-18T19:56:07.495Z,39.38
2022-08-18T19:59:18.676Z,62.03
2022-08-18T20:01:52.176Z,58.30
2022-08-18T20:04:19.075Z,59.60
2022-08-18T20:06:51.803Z,51.80
2022-08-18T20:09:24.781Z,52.70
2022-08-18T20:12:30.870Z,51.60
2022-08-18T20:15:28.945Z,52.55
2022-08-18T20:17:58.930Z,45.15
2022-08-18T20:20:29.203Z,48.22
2022-08-18T20:22:58.245Z,44.83
2022-08-18T20:25:25.333Z,44.03
2022-08-18T20:27:58.617Z,38.33
2022-08-18T20:30:53.135Z,39.17
2022-08-18T20:33:24.160Z,36.03
2022-08-18T20:36:25.229Z,37.75
2022-08-18T20:38:55.200Z,36.05
2022-08-18T20:41:28.380Z,38.00
2022-08-18T20:43:58.617Z,34.35
2022-08-18T20:46:43.412Z,33.70
2022-08-18T20:49:45.113Z,37.53
2022-08-18T20:52:37.968Z,36.13
2022-08-18T20:55:30.852Z,38.38
2022-08-18T20:58:08.299Z,41.65
2022-08-18T21:00:41.700Z,37.05
2022-08-18T21:03:13.570Z,37.25
2022-08-18T21:05:45.040Z,38.13
2022-08-18T21:08:16.281Z,45.72
2022-08-18T21:10:51.156Z,35.83
2022-08-18T21:13:39.948Z,35.08
2022-08-18T21:16:38.504Z,34.22
2022-08-18T21:19:23.676Z,34.40
2022-08-18T21:21:58.388Z,35.15
2022-08-18T21:24:41.688Z,31.88
2022-08-18T21:27:23.839Z,37.15
2022-08-18T21:29:52.083Z,27.98
2022-08-18T21:32:31.387Z,29.35
2022-08-18T21:35:05.918Z,27.75
2022-08-18T21:37:41.551Z,33.60
2022-08-18T21:40:08.892Z,40.85
2022-08-18T21:42:39.314Z,36.80
2022-08-18T21:45:13.435Z,31.13
2022-08-18T21:47:49.911Z,31.00
2022-08-18T21:50:23.829Z,38.60
2022-08-18T21:52:55.751Z,40.97
2022-08-18T21:55:42.943Z,40.45
2022-08-18T21:58:09.844Z,37.47
2022-08-18T22:00:42.493Z,37.10
2022-08-18T22:03:10.335Z,35.20
2022-08-18T22:05:59.087Z,35.55
2022-08-18T22:08:49.625Z,31.42
2022-08-18T22:12:00.537Z,30.40
2022-08-18T22:14:35.814Z,28.58
2022-08-18T22:17:51.801Z,29.83
2022-08-18T22:20:38.771Z,30.65
2022-08-18T22:23:24.140Z,28.63
2022-08-18T22:25:51.436Z,27.58
2022-08-18T22:28:26.520Z,26.88
2022-08-18T22:30:54.718Z,27.35
2022-08-18T22:33:22.989Z,25.98
2022-08-18T22:35:55.191Z,30.95
2022-08-18T22:38:23.375Z,30.40
2022-08-18T22:40:50.350Z,28.92
2022-08-18T22:43:18.414Z,23.88
2022-08-18T22:45:45.593Z,25.90
2022-08-18T22:48:13.635Z,23.95
2022-08-18T22:50:41.636Z,27.00
2022-08-18T22:53:29.209Z,24.10
2022-08-18T22:55:59.480Z,24.05
2022-08-18T22:58:33.343Z,23.27
2022-08-18T23:01:01.108Z,25.13
2022-08-18T23:03:34.460Z,25.77
2022-08-18T23:06:09.956Z,25.48
2022-08-18T23:08:54.701Z,28.10
2022-08-18T23:11:28.604Z,30.08
2022-08-18T23:13:56.400Z,28.27
2022-08-18T23:16:31.568Z,27.95
2022-08-18T23:19:02.099Z,26.58
2022-08-18T23:21:34.393Z,33.58
2022-08-18T23:24:05.261Z,29.50
2022-08-18T23:26:33.988Z,29.55
2022-08-18T23:29:03.075Z,28.25
2022-08-18T23:31:30.463Z,26.35
2022-08-18T23:33:59.727Z,28.85
2022-08-18T23:36:28.907Z,27.65
2022-08-18T23:38:56.251Z,25.42
2022-08-18T23:41:23.781Z,32.08
2022-08-18T23:43:50.918Z,30.80
2022-08-18T23:46:29.370Z,29.88
2022-08-18T23:48:58.601Z,25.40
2022-08-18T23:51:33.247Z,31.25
2022-08-18T23:54:06.418Z,26.85
2022-08-18T23:56:34.546Z,26.52
2022-08-18T23:59:02.949Z,31.65
